Time;durP1;ratioP1;P1;durP2;ratioP2;P2;SDS_P1;SDS_P2;PMS_P1;PMS_P2;Temp;Humidity;BMP_temperature;BMP_pressure;BME280_temperature;BME280_humidity;BME280_pressure;Samples;Min_cycle;Max_cycle;Signal;HPM_P1;HPM_P2
2023/02/02 00:00:15;;;;;;;39.58;9.20;;;28.40;68.20;;;;;;5086324;28;20317;-61
2023/02/02 00:02:42;;;;;;;169.02;18.08;;;28.20;68.90;;;;;;5085851;28;20024;-61
2023/02/02 00:05:10;;;;;;;66.65;11.43;;;28.10;69.60;;;;;;5086082;28;20241;-59
2023/02/02 00:07:36;;;;;;;56.42;9.93;;;27.90;70.00;;;;;;5086122;28;20040;-59
2023/02/02 00:10:03;;;;;;;34.60;8.10;;;27.80;70.60;;;;;;5086183;28;20309;-62
2023/02/02 00:12:29;;;;;;;136.90;13.93;;;27.70;70.70;;;;;;5086389;28;20037;-61
2023/02/02 00:14:56;;;;;;;30.83;7.30;;;27.60;70.80;;;;;;5085961;28;20312;-62
2023/02/02 00:17:23;;;;;;;66.45;9.32;;;27.50;70.90;;;;;;5085514;28;20034;-55
2023/02/02 00:19:49;;;;;;;65.25;8.93;;;27.50;71.10;;;;;;5085890;28;20062;-57
2023/02/02 00:22:16;;;;;;;43.47;8.65;;;27.60;70.90;;;;;;5085593;28;20304;-57
2023/02/02 00:24:43;;;;;;;36.50;7.72;;;27.70;70.90;;;;;;5085825;28;20048;-59
2023/02/02 00:27:09;;;;;;;42.42;8.82;;;27.80;70.70;;;;;;5075964;28;20036;-62
2023/02/02 00:29:38;;;;;;;34.03;7.63;;;27.80;70.60;;;;;;5076815;28;20065;-58
2023/02/02 00:32:05;;;;;;;31.42;7.30;;;27.90;70.60;;;;;;5069141;28;20088;-60
2023/02/02 00:34:31;;;;;;;20.02;7.05;;;28.00;70.50;;;;;;5073671;28;20024;-56
2023/02/02 00:36:58;;;;;;;19.48;6.22;;;28.00;70.30;;;;;;5080367;28;20261;-53
2023/02/02 00:39:25;;;;;;;20.65;6.13;;;28.10;70.60;;;;;;5076856;28;20032;-54
2023/02/02 00:41:52;;;;;;;21.35;6.35;;;28.10;70.40;;;;;;5085850;28;20096;-54
2023/02/02 00:47:04;;;;;;;19.08;5.68;;;28.10;70.20;;;;;;5073480;28;20070;-57
2023/02/02 00:49:31;;;;;;;20.85;5.65;;;28.10;70.10;;;;;;5077509;28;20263;-56
2023/02/02 00:51:59;;;;;;;23.35;5.50;;;28.20;70.30;;;;;;5076502;28;20050;-60
2023/02/02 00:54:26;;;;;;;18.20;6.00;;;28.10;70.20;;;;;;5074142;28;20311;-56
2023/02/02 00:56:52;;;;;;;16.27;5.72;;;28.20;70.30;;;;;;5067306;28;20221;-56
2023/02/02 00:59:20;;;;;;;20.88;6.13;;;28.20;70.30;;;;;;5077940;28;20016;-57
2023/02/02 01:01:47;;;;;;;16.17;6.15;;;28.20;70.20;;;;;;5077436;28;20044;-57
2023/02/02 01:04:16;;;;;;;24.92;6.65;;;28.20;70.10;;;;;;5084605;28;20016;-56
2023/02/02 01:06:42;;;;;;;24.33;7.28;;;28.20;70.00;;;;;;5084895;28;20339;-54
2023/02/02 01:09:09;;;;;;;21.15;6.97;;;28.20;69.90;;;;;;5081370;28;20029;-56
2023/02/02 01:11:36;;;;;;;22.27;6.43;;;28.20;69.90;;;;;;5080822;28;20028;-54
2023/02/02 01:14:03;;;;;;;20.60;7.50;;;28.20;69.90;;;;;;5084973;28;20098;-55
2023/02/02 01:16:29;;;;;;;24.98;6.82;;;28.20;69.70;;;;;;5084864;28;20029;-56
2023/02/02 01:18:56;;;;;;;16.13;6.57;;;28.20;69.60;;;;;;5084716;28;20032;-57
2023/02/02 01:21:23;;;;;;;19.58;6.88;;;28.20;69.60;;;;;;5084307;28;20036;-57
2023/02/02 01:23:51;;;;;;;15.13;6.55;;;28.20;69.50;;;;;;5084760;28;20186;-57
2023/02/02 01:26:17;;;;;;;18.15;6.60;;;28.20;69.60;;;;;;5064788;28;20096;-57
2023/02/02 01:28:44;;;;;;;28.05;6.68;;;28.20;69.50;;;;;;5064904;28;20332;-57
2023/02/02 01:31:14;;;;;;;28.35;7.30;;;28.20;69.30;;;;;;5064638;28;20028;-57
2023/02/02 01:33:42;;;;;;;23.95;7.15;;;28.10;69.30;;;;;;5071192;28;20058;-56
2023/02/02 01:36:12;;;;;;;21.08;6.60;;;28.10;69.30;;;;;;5079725;28;20036;-60
2023/02/02 01:38:39;;;;;;;23.67;7.20;;;28.10;69.20;;;;;;5073230;28;20025;-56
2023/02/02 01:41:07;;;;;;;28.90;6.50;;;28.10;69.20;;;;;;5064135;28;20186;-55
2023/02/02 01:43:45;;;;;;;17.85;5.93;;;28.10;69.30;;;;;;5064317;28;20275;-58
2023/02/02 01:46:17;;;;;;;11.45;5.63;;;28.10;69.20;;;;;;5064157;28;20317;-58
2023/02/02 01:48:48;;;;;;;11.80;6.82;;;28.10;69.70;;;;;;5064331;28;20253;-57
2023/02/02 01:51:22;;;;;;;21.63;6.78;;;28.10;69.30;;;;;;5063855;28;20050;-58
2023/02/02 01:53:51;;;;;;;19.58;7.07;;;28.10;69.40;;;;;;5064154;28;20339;-58
2023/02/02 01:56:38;;;;;;;23.00;6.40;;;28.10;69.40;;;;;;5064245;28;20036;-55
2023/02/02 01:59:06;;;;;;;16.75;6.10;;;28.10;69.30;;;;;;5063922;28;20313;-52
2023/02/02 02:01:33;;;;;;;12.70;6.20;;;28.00;69.20;;;;;;5074873;28;20036;-57
2023/02/02 02:04:00;;;;;;;14.73;6.63;;;28.00;69.10;;;;;;5064176;28;20025;-56
2023/02/02 02:06:27;;;;;;;13.43;6.45;;;28.00;69.20;;;;;;5063281;28;20028;-55
2023/02/02 02:09:03;;;;;;;10.75;5.70;;;28.00;69.20;;;;;;5063725;28;20346;-56
2023/02/02 02:11:31;;;;;;;9.43;6.25;;;28.00;69.00;;;;;;5063670;28;20261;-52
2023/02/02 02:17:05;;;;;;;11.32;5.72;;;28.00;68.80;;;;;;5063610;28;20088;-54
2023/02/02 02:26:42;;;;;;;12.55;6.35;;;28.00;68.70;;;;;;5063294;28;20351;-53
2023/02/02 02:29:46;;;;;;;12.25;6.03;;;28.00;68.70;;;;;;5074936;28;20020;-57
2023/02/02 02:32:36;;;;;;;15.85;5.72;;;28.00;68.70;;;;;;5083716;28;20230;-56
2023/02/02 02:35:20;;;;;;;11.23;5.55;;;27.90;68.50;;;;;;5083536;28;20073;-56
2023/02/02 02:38:08;;;;;;;16.10;5.57;;;28.00;68.50;;;;;;5084105;28;20094;-53
2023/02/02 02:40:50;;;;;;;9.00;5.45;;;27.90;68.40;;;;;;5083718;28;20070;-55
2023/02/02 02:43:47;;;;;;;13.20;5.40;;;27.90;68.30;;;;;;5083751;28;20332;-56
2023/02/02 02:46:15;;;;;;;11.52;5.70;;;27.90;68.20;;;;;;5082807;28;20036;-56
2023/02/02 02:48:44;;;;;;;12.57;5.53;;;27.90;68.30;;;;;;5083844;28;20032;-56
2023/02/02 02:51:36;;;;;;;6.75;4.90;;;27.90;68.30;;;;;;5077706;28;20067;-54
2023/02/02 02:54:04;;;;;;;9.65;5.38;;;27.90;68.20;;;;;;5063640;28;20324;-55
2023/02/02 02:56:57;;;;;;;7.45;4.68;;;27.90;68.10;;;;;;5063534;28;20037;-56
2023/02/02 02:59:40;;;;;;;9.30;4.93;;;27.90;68.20;;;;;;5063491;28;20096;-54
2023/02/02 03:02:28;;;;;;;6.95;4.95;;;27.90;68.40;;;;;;5063563;28;20092;-54
2023/02/02 03:04:58;;;;;;;8.23;4.97;;;27.90;68.30;;;;;;5063052;28;20029;-54
2023/02/02 03:08:01;;;;;;;13.32;5.25;;;27.90;68.30;;;;;;5063350;28;20128;-54
2023/02/02 03:10:30;;;;;;;13.90;5.22;;;27.90;68.20;;;;;;5065587;28;20040;-53
2023/02/02 03:12:57;;;;;;;10.80;5.20;;;27.90;68.20;;;;;;5067779;28;20025;-54
2023/02/02 03:15:24;;;;;;;9.90;5.28;;;27.80;68.30;;;;;;5067662;28;20025;-55
2023/02/02 03:17:52;;;;;;;10.02;5.10;;;27.80;68.20;;;;;;5067430;28;20029;-53
2023/02/02 03:20:19;;;;;;;9.73;4.95;;;27.80;68.30;;;;;;5067117;28;20021;-57
2023/02/02 03:22:46;;;;;;;8.43;4.90;;;27.80;68.30;;;;;;5067554;28;20071;-57
2023/02/02 03:25:13;;;;;;;10.82;5.72;;;27.80;68.30;;;;;;5066952;28;20029;-55
2023/02/02 03:27:39;;;;;;;10.65;5.00;;;27.80;68.30;;;;;;5067236;28;20028;-58
2023/02/02 03:30:12;;;;;;;10.43;4.80;;;27.70;68.00;;;;;;5066951;28;20067;-54
2023/02/02 03:32:38;;;;;;;;;;;27.70;68.20;;;;;;5067108;28;20327;-54
2023/02/02 03:35:05;;;;;;;9.27;5.10;;;27.70;68.10;;;;;;5066844;28;19905;-52
2023/02/02 03:37:31;;;;;;;10.95;4.85;;;27.70;68.20;;;;;;5067127;28;20029;-53
2023/02/02 03:39:59;;;;;;;10.70;5.43;;;27.70;68.10;;;;;;5066806;28;20067;-57
2023/02/02 03:42:25;;;;;;;7.75;5.05;;;27.70;68.10;;;;;;5066868;28;20032;-55
2023/02/02 03:44:52;;;;;;;7.68;5.22;;;27.70;67.80;;;;;;5066629;28;20044;-61
2023/02/02 03:47:18;;;;;;;9.65;5.10;;;27.70;67.80;;;;;;5066626;28;20375;-54
2023/02/02 03:49:45;;;;;;;9.88;5.43;;;27.70;67.80;;;;;;5066793;28;20048;-57
2023/02/02 03:52:12;;;;;;;8.52;5.25;;;27.60;67.70;;;;;;5066890;28;20029;-53
2023/02/02 03:54:38;;;;;;;11.65;5.35;;;27.60;67.60;;;;;;5066452;28;20021;-53
2023/02/02 03:57:05;;;;;;;8.50;5.57;;;27.60;67.70;;;;;;5066728;28;20084;-56
2023/02/02 03:59:31;;;;;;;11.13;5.68;;;27.60;67.70;;;;;;5066484;28;20082;-54
2023/02/02 04:01:58;;;;;;;12.68;5.75;;;27.60;67.70;;;;;;5066431;28;20105;-53
2023/02/02 04:04:24;;;;;;;6.95;5.50;;;27.60;67.80;;;;;;5066569;28;20340;-54
2023/02/02 04:06:51;;;;;;;10.68;6.13;;;27.60;67.80;;;;;;5066223;28;20103;-61
2023/02/02 04:09:17;;;;;;;8.00;5.90;;;27.60;67.70;;;;;;5066200;28;20016;-55
2023/02/02 04:11:44;;;;;;;8.13;6.35;;;27.60;67.50;;;;;;5066141;28;20036;-56
2023/02/02 04:14:11;;;;;;;11.95;6.50;;;27.50;67.40;;;;;;5066086;28;20075;-55
2023/02/02 04:16:37;;;;;;;10.43;6.00;;;27.60;67.60;;;;;;5066238;28;20043;-55
2023/02/02 04:19:04;;;;;;;9.23;6.03;;;27.50;67.70;;;;;;5066104;28;20096;-55
2023/02/02 04:21:31;;;;;;;8.63;6.35;;;27.50;67.80;;;;;;5065784;28;20296;-56
2023/02/02 04:23:57;;;;;;;8.55;6.40;;;27.50;67.80;;;;;;5065904;28;20032;-55
2023/02/02 04:26:27;;;;;;;10.02;6.57;;;27.50;67.90;;;;;;5065740;28;20331;-53
2023/02/02 04:28:53;;;;;;;10.05;6.55;;;27.50;68.00;;;;;;5065770;28;20056;-54
2023/02/02 04:31:20;;;;;;;11.07;7.03;;;27.50;68.00;;;;;;5068327;28;20045;-53
2023/02/02 04:33:46;;;;;;;10.27;7.30;;;27.50;67.90;;;;;;5077376;28;20020;-54
2023/02/02 04:36:13;;;;;;;13.02;7.97;;;27.50;67.70;;;;;;5065888;28;20094;-54
2023/02/02 04:38:40;;;;;;;9.73;8.05;;;27.50;67.60;;;;;;5065733;28;20024;-55
2023/02/02 04:41:08;;;;;;;12.43;8.38;;;27.50;67.50;;;;;;5065510;28;20040;-53
2023/02/02 04:43:36;;;;;;;12.02;8.45;;;27.50;67.40;;;;;;5065403;28;20068;-54
2023/02/02 04:46:03;;;;;;;14.48;9.15;;;27.50;67.50;;;;;;5065416;28;20016;-54
2023/02/02 04:48:30;;;;;;;13.25;9.40;;;27.50;67.40;;;;;;5065469;28;20032;-53
2023/02/02 04:51:02;;;;;;;14.05;9.38;;;27.50;67.30;;;;;;5065573;28;20248;-54
2023/02/02 04:53:28;;;;;;;15.30;10.90;;;27.40;67.10;;;;;;5065472;28;20043;-57
2023/02/02 04:55:55;;;;;;;15.70;11.23;;;27.40;67.00;;;;;;5065181;28;20260;-55
2023/02/02 04:58:22;;;;;;;18.20;12.50;;;27.40;66.90;;;;;;5065802;28;20301;-54
2023/02/02 05:00:49;;;;;;;16.80;12.13;;;27.40;66.90;;;;;;5065223;28;20039;-54
2023/02/02 05:03:15;;;;;;;17.52;13.25;;;27.40;66.70;;;;;;5065567;28;20100;-52
2023/02/02 05:05:42;;;;;;;21.30;14.18;;;27.40;66.50;;;;;;5065264;28;20031;-55
2023/02/02 05:08:10;;;;;;;16.92;14.30;;;27.40;66.40;;;;;;5065593;28;20302;-55
2023/02/02 05:10:40;;;;;;;20.27;14.75;;;27.40;66.20;;;;;;5064812;28;20028;-55
2023/02/02 05:13:08;;;;;;;20.83;13.63;;;27.40;66.30;;;;;;5065304;28;20035;-55
2023/02/02 05:15:36;;;;;;;18.92;13.73;;;27.40;66.40;;;;;;5064857;28;20336;-55
2023/02/02 05:18:02;;;;;;;15.68;13.82;;;27.40;66.40;;;;;;5064901;28;20040;-62
2023/02/02 05:20:29;;;;;;;16.55;13.68;;;27.40;66.40;;;;;;5064786;28;20055;-55
2023/02/02 05:22:56;;;;;;;16.98;13.13;;;27.40;66.50;;;;;;5065204;28;20025;-55
2023/02/02 05:25:22;;;;;;;16.13;13.05;;;27.40;66.50;;;;;;5064488;28;20032;-56
2023/02/02 05:27:49;;;;;;;15.35;12.50;;;27.40;66.60;;;;;;5065059;28;20036;-54
2023/02/02 05:30:16;;;;;;;16.15;12.45;;;27.30;66.60;;;;;;5064518;28;20086;-57
2023/02/02 05:32:42;;;;;;;17.85;12.00;;;27.30;66.70;;;;;;5064266;28;20067;-56
2023/02/02 05:35:10;;;;;;;16.92;11.98;;;27.30;66.80;;;;;;5064592;28;20305;-59
2023/02/02 05:37:36;;;;;;;14.43;11.60;;;27.30;66.80;;;;;;5064826;28;20059;-54
2023/02/02 05:40:04;;;;;;;14.55;11.70;;;27.30;66.90;;;;;;5064463;28;20305;-57
2023/02/02 05:42:31;;;;;;;15.90;12.57;;;27.30;66.80;;;;;;5065004;28;20040;-56
2023/02/02 05:44:57;;;;;;;16.98;13.20;;;27.30;66.80;;;;;;5064266;28;20386;-56
2023/02/02 05:47:24;;;;;;;17.45;13.25;;;27.30;66.80;;;;;;5064506;28;20201;-55
2023/02/02 05:49:50;;;;;;;17.70;15.07;;;27.30;66.80;;;;;;5064383;28;20040;-55
2023/02/02 05:52:21;;;;;;;19.42;16.20;;;27.30;66.70;;;;;;5064572;28;20285;-54
2023/02/02 05:54:47;;;;;;;20.25;16.92;;;27.30;66.60;;;;;;5064168;28;20096;-54
2023/02/02 05:57:14;;;;;;;21.55;17.52;;;27.30;66.60;;;;;;5064479;28;20059;-55
2023/02/02 05:59:40;;;;;;;22.20;18.33;;;27.30;66.50;;;;;;5064316;28;20033;-54
2023/02/02 06:02:07;;;;;;;23.55;20.25;;;27.30;66.40;;;;;;5063903;28;20221;-54
2023/02/02 06:04:34;;;;;;;27.98;22.17;;;27.30;66.30;;;;;;5064268;28;20021;-54
2023/02/02 06:07:00;;;;;;;27.42;22.45;;;27.20;66.10;;;;;;5064188;28;20312;-55
2023/02/02 06:09:27;;;;;;;29.13;23.13;;;27.20;66.00;;;;;;5063939;28;20127;-55
2023/02/02 06:11:53;;;;;;;29.30;24.48;;;27.20;66.00;;;;;;5064273;28;20084;-55
2023/02/02 06:14:20;;;;;;;31.80;25.70;;;27.20;65.90;;;;;;5064051;28;20024;-55
2023/02/02 06:16:47;;;;;;;30.27;25.33;;;27.20;65.80;;;;;;5063920;28;20032;-52
2023/02/02 06:19:13;;;;;;;31.45;25.58;;;27.20;65.90;;;;;;5063873;28;20029;-55
2023/02/02 06:21:40;;;;;;;31.45;26.35;;;27.20;65.80;;;;;;5063895;28;20041;-55
2023/02/02 06:24:07;;;;;;;32.22;26.98;;;27.10;65.70;;;;;;5063802;28;20029;-53
2023/02/02 06:26:33;;;;;;;33.50;27.73;;;27.20;65.70;;;;;;5063934;28;20033;-53
2023/02/02 06:29:00;;;;;;;36.08;27.95;;;27.20;65.60;;;;;;5063992;28;20080;-55
2023/02/02 06:31:26;;;;;;;35.13;28.67;;;27.10;65.60;;;;;;5063723;28;20052;-53
2023/02/02 06:33:58;;;;;;;31.98;27.48;;;27.10;65.60;;;;;;5063796;28;20318;-55
2023/02/02 06:36:26;;;;;;;31.98;26.80;;;27.10;65.50;;;;;;5063866;28;20209;-55
2023/02/02 06:38:54;;;;;;;30.02;26.83;;;27.10;65.60;;;;;;5063500;28;20032;-58
2023/02/02 06:41:21;;;;;;;31.17;27.10;;;27.10;65.60;;;;;;5063653;28;20025;-56
2023/02/02 06:43:48;;;;;;;32.13;26.17;;;27.10;65.70;;;;;;5063665;28;20053;-57
2023/02/02 06:46:16;;;;;;;30.38;27.17;;;27.00;65.70;;;;;;5067177;28;20021;-56
2023/02/02 06:48:43;;;;;;;34.83;27.88;;;27.00;65.90;;;;;;5067826;28;20048;-55
2023/02/02 06:51:09;;;;;;;32.42;26.27;;;27.00;66.10;;;;;;5067715;28;20082;-53
2023/02/02 06:53:36;;;;;;;30.20;26.85;;;27.00;66.10;;;;;;5067621;28;20221;-53
2023/02/02 06:56:05;;;;;;;36.20;27.95;;;27.00;66.10;;;;;;5067651;28;20343;-54
2023/02/02 06:58:32;;;;;;;30.38;27.10;;;27.00;66.20;;;;;;5067587;28;20028;-54
2023/02/02 07:01:07;;;;;;;33.47;28.25;;;27.00;66.10;;;;;;5067375;28;20087;-57
2023/02/02 07:03:35;;;;;;;34.35;28.90;;;26.90;66.00;;;;;;5067513;28;20181;-55
2023/02/02 07:06:17;;;;;;;32.50;27.88;;;26.90;65.90;;;;;;5067230;28;20025;-55
2023/02/02 07:08:44;;;;;;;34.92;29.58;;;26.90;66.20;;;;;;5067317;28;20048;-55
2023/02/02 07:11:11;;;;;;;36.45;29.95;;;26.90;66.00;;;;;;5067195;28;20039;-61
2023/02/02 07:13:38;;;;;;;35.20;30.15;;;26.90;65.90;;;;;;5067145;28;20025;-55
2023/02/02 07:16:06;;;;;;;34.97;30.17;;;26.90;65.80;;;;;;5072673;28;20253;-55
2023/02/02 07:18:33;;;;;;;35.72;30.13;;;26.90;65.70;;;;;;5087005;28;20036;-57
2023/02/02 07:21:00;;;;;;;34.88;30.77;;;26.90;65.70;;;;;;5087040;28;20039;-57
2023/02/02 07:23:27;;;;;;;36.90;30.95;;;26.90;65.60;;;;;;5087119;28;20107;-56
2023/02/02 07:26:06;;;;;;;32.83;29.05;;;26.90;65.60;;;;;;5086993;28;20031;-54
2023/02/02 07:28:33;;;;;;;36.50;30.95;;;26.90;65.50;;;;;;5087142;28;20035;-55
2023/02/02 07:31:00;;;;;;;35.17;30.27;;;26.90;65.50;;;;;;5086982;28;20024;-55
2023/02/02 07:33:27;;;;;;;36.92;30.38;;;26.90;65.50;;;;;;5086888;28;20021;-55
2023/02/02 07:35:53;;;;;;;35.20;30.50;;;26.90;65.50;;;;;;5086989;28;20035;-55
2023/02/02 07:38:20;;;;;;;34.15;30.17;;;26.90;65.50;;;;;;5087438;28;20037;-57
2023/02/02 07:40:47;;;;;;;34.83;28.98;;;26.90;65.30;;;;;;5086900;28;20032;-54
2023/02/02 07:43:13;;;;;;;34.33;29.75;;;26.90;65.30;;;;;;5086901;28;20064;-54
2023/02/02 07:45:40;;;;;;;36.33;29.67;;;26.90;65.20;;;;;;5086623;28;20332;-55
2023/02/02 07:48:06;;;;;;;42.35;30.75;;;26.80;65.00;;;;;;5086764;28;20099;-56
2023/02/02 07:50:33;;;;;;;35.10;30.27;;;26.90;64.80;;;;;;5086641;28;20024;-58
2023/02/02 07:53:00;;;;;;;35.03;30.52;;;26.90;64.80;;;;;;5086947;28;20028;-56
2023/02/02 07:55:26;;;;;;;36.92;31.20;;;26.90;64.60;;;;;;5085937;28;20028;-55
2023/02/02 07:57:54;;;;;;;39.05;30.25;;;26.90;64.40;;;;;;5086972;28;20311;-57
2023/02/02 08:00:21;;;;;;;34.28;29.08;;;26.80;64.20;;;;;;5086416;28;20092;-55
2023/02/02 08:02:51;;;;;;;32.92;28.70;;;26.90;64.20;;;;;;5086755;28;20032;-56
2023/02/02 08:05:18;;;;;;;34.58;29.23;;;26.90;64.20;;;;;;5086178;28;20025;-58
2023/02/02 08:07:45;;;;;;;35.08;29.50;;;26.80;64.20;;;;;;5086647;28;20029;-55
2023/02/02 08:10:12;;;;;;;36.63;29.45;;;26.80;64.10;;;;;;5086373;28;20093;-63
2023/02/02 08:12:39;;;;;;;30.83;27.52;;;26.80;64.20;;;;;;5086052;28;20035;-54
2023/02/02 08:15:06;;;;;;;34.28;27.83;;;26.80;64.40;;;;;;5066319;28;20029;-56
2023/02/02 08:17:33;;;;;;;32.85;27.38;;;26.80;64.40;;;;;;5066473;28;20328;-56
2023/02/02 08:19:59;;;;;;;34.13;27.75;;;26.80;64.30;;;;;;5066167;28;20195;-57
2023/02/02 08:22:26;;;;;;;30.98;27.55;;;26.80;64.20;;;;;;5066193;28;20025;-55
2023/02/02 08:24:52;;;;;;;32.00;27.20;;;26.80;64.40;;;;;;5066093;28;20032;-55
2023/02/02 08:27:19;;;;;;;31.85;28.40;;;26.80;64.30;;;;;;5066040;28;20100;-57
2023/02/02 08:29:45;;;;;;;31.45;26.92;;;26.80;64.20;;;;;;5066247;28;20088;-55
2023/02/02 08:32:12;;;;;;;31.35;27.35;;;26.70;64.10;;;;;;5065768;28;20025;-55
2023/02/02 08:34:39;;;;;;;34.45;28.70;;;26.80;64.20;;;;;;5065632;28;20024;-53
2023/02/02 08:37:06;;;;;;;31.45;26.60;;;26.70;64.20;;;;;;5078258;28;20051;-54
2023/02/02 08:39:32;;;;;;;35.25;27.98;;;26.80;64.30;;;;;;5085986;28;20032;-55
2023/02/02 08:41:59;;;;;;;29.35;26.13;;;26.80;64.40;;;;;;5086165;28;20107;-56
2023/02/02 08:44:25;;;;;;;31.10;26.25;;;26.80;64.50;;;;;;5085465;28;20074;-56
2023/02/02 08:46:52;;;;;;;32.05;26.52;;;26.70;64.30;;;;;;5085587;28;20041;-59
2023/02/02 08:49:19;;;;;;;30.40;25.73;;;26.80;64.30;;;;;;5085385;28;20044;-55
2023/02/02 08:51:45;;;;;;;29.05;25.20;;;26.70;64.20;;;;;;5085785;28;20041;-55
2023/02/02 08:54:12;;;;;;;28.63;24.65;;;26.70;64.30;;;;;;5085497;28;20027;-56
2023/02/02 08:56:38;;;;;;;29.55;24.02;;;26.70;64.40;;;;;;5085691;28;20304;-56
2023/02/02 08:59:05;;;;;;;26.02;23.08;;;26.70;64.50;;;;;;5083350;28;20036;-53
2023/02/02 09:01:33;;;;;;;27.98;22.42;;;26.70;64.70;;;;;;5065586;28;20028;-53
2023/02/02 09:04:07;;;;;;;29.67;22.85;;;26.70;64.80;;;;;;5081198;28;20220;-53
2023/02/02 09:06:38;;;;;;;25.65;21.65;;;26.70;65.10;;;;;;5078382;28;20028;-57
2023/02/02 09:09:06;;;;;;;27.40;22.33;;;26.70;65.20;;;;;;5075840;28;20020;-55
2023/02/02 09:11:34;;;;;;;24.10;21.48;;;26.60;65.30;;;;;;5064905;28;20024;-55
2023/02/02 09:14:01;;;;;;;27.38;21.98;;;26.60;65.20;;;;;;5075278;28;20277;-56
2023/02/02 09:16:28;;;;;;;26.15;21.98;;;26.60;65.10;;;;;;5085234;28;20355;-54
2023/02/02 09:18:56;;;;;;;27.67;22.02;;;26.60;65.10;;;;;;5084881;28;20032;-55
2023/02/02 09:21:23;;;;;;;24.05;20.40;;;26.60;65.10;;;;;;5084892;28;20028;-55
2023/02/02 09:23:52;;;;;;;25.85;21.75;;;26.60;65.00;;;;;;5076473;28;20056;-55
2023/02/02 09:26:22;;;;;;;25.17;21.67;;;26.60;64.80;;;;;;5064459;28;20094;-55
2023/02/02 09:28:51;;;;;;;24.73;21.83;;;26.60;64.70;;;;;;5080749;28;20020;-56
2023/02/02 09:31:18;;;;;;;26.45;21.80;;;26.60;64.60;;;;;;5064930;28;20364;-56
2023/02/02 09:33:45;;;;;;;28.05;22.33;;;26.60;64.50;;;;;;5064453;28;20024;-56
2023/02/02 09:36:23;;;;;;;29.88;23.10;;;26.60;64.20;;;;;;5064768;28;20044;-58
2023/02/02 09:38:51;;;;;;;33.50;22.48;;;26.50;63.90;;;;;;5064359;28;20025;-56
2023/02/02 09:41:35;;;;;;;27.15;22.40;;;26.60;63.60;;;;;;5064419;28;20024;-56
2023/02/02 09:44:24;;;;;;;33.10;23.13;;;26.60;63.40;;;;;;5064302;28;20090;-52
2023/02/02 09:47:28;;;;;;;26.30;23.08;;;26.50;63.00;;;;;;5064369;28;20037;-56
2023/02/02 09:50:19;;;;;;;27.95;22.55;;;26.50;62.80;;;;;;5058317;28;20063;-57
2023/02/02 09:53:05;;;;;;;27.25;22.33;;;26.50;62.80;;;;;;5064623;28;20050;-54
2023/02/02 09:55:37;;;;;;;30.83;22.85;;;26.50;62.90;;;;;;5079579;28;20331;-57
2023/02/02 09:58:12;;;;;;;28.08;22.23;;;26.50;63.00;;;;;;5084772;28;20393;-56
2023/02/02 10:00:54;;;;;;;28.20;21.85;;;26.40;62.90;;;;;;5084168;28;20099;-54
2023/02/02 10:03:49;;;;;;;25.55;22.75;;;26.50;63.10;;;;;;5084640;28;20032;-55
2023/02/02 10:06:42;;;;;;;28.38;22.25;;;26.50;63.00;;;;;;5083987;28;20225;-56
2023/02/02 10:09:17;;;;;;;29.90;22.50;;;26.50;62.80;;;;;;5084084;28;20021;-55
2023/02/02 10:12:07;;;;;;;29.27;22.52;;;26.40;62.70;;;;;;5084139;28;20104;-58
2023/02/02 10:14:47;;;;;;;31.60;21.20;;;26.50;62.80;;;;;;5084208;28;20336;-53
2023/02/02 10:17:38;;;;;;;27.38;21.75;;;26.50;62.80;;;;;;5083978;28;20078;-54
2023/02/02 10:20:49;;;;;;;28.48;21.48;;;26.40;62.80;;;;;;5083590;28;20308;-57
2023/02/02 10:23:27;;;;;;;31.63;21.63;;;26.40;62.90;;;;;;5068376;28;20277;-54
2023/02/02 10:26:03;;;;;;;26.20;20.90;;;26.50;63.30;;;;;;5083949;28;20032;-61
2023/02/02 10:28:36;;;;;;;23.90;20.20;;;26.40;63.40;;;;;;5084023;28;20172;-56
2023/02/02 10:31:02;;;;;;;;;;;26.40;63.70;;;;;;5084384;28;20020;-56
2023/02/02 10:33:38;;;;;;;24.70;19.02;;;26.40;63.90;;;;;;5077986;28;19904;-53
2023/02/02 10:36:22;;;;;;;23.60;17.92;;;26.40;64.40;;;;;;5063759;28;20032;-53
2023/02/02 10:39:10;;;;;;;24.73;18.52;;;26.40;64.80;;;;;;5063538;28;20029;-54
2023/02/02 10:41:49;;;;;;;27.98;18.58;;;26.40;65.00;;;;;;5063806;28;20104;-56
2023/02/02 10:44:34;;;;;;;23.75;17.48;;;26.40;65.20;;;;;;5063285;28;20049;-55
2023/02/02 10:47:05;;;;;;;31.02;18.05;;;26.30;65.20;;;;;;5063599;28;20272;-56
2023/02/02 10:49:33;;;;;;;26.23;17.33;;;26.30;65.60;;;;;;5063605;28;20041;-55
2023/02/02 10:52:15;;;;;;;31.83;17.70;;;26.30;65.70;;;;;;5063882;28;20221;-55
2023/02/02 10:55:13;;;;;;;27.23;16.92;;;26.30;65.70;;;;;;5063703;28;20036;-54
2023/02/02 10:57:47;;;;;;;19.98;15.88;;;26.30;65.90;;;;;;5064105;28;20029;-55
2023/02/02 11:00:20;;;;;;;28.60;17.00;;;26.30;65.90;;;;;;5063503;28;20033;-56
2023/02/02 11:02:48;;;;;;;30.17;16.85;;;26.30;66.00;;;;;;5066780;28;20028;-55
2023/02/02 11:08:39;;;;;;;25.05;16.17;;;26.30;66.30;;;;;;5083987;28;20069;-54
2023/02/02 11:11:33;;;;;;;40.28;17.00;;;26.30;66.40;;;;;;5071880;28;20056;-55
2023/02/02 11:14:09;;;;;;;34.55;16.58;;;26.30;66.80;;;;;;5071641;28;20092;-54
2023/02/02 11:16:41;;;;;;;38.33;15.88;;;26.20;66.90;;;;;;5081770;28;20201;-55
2023/02/02 11:19:16;;;;;;;26.00;13.63;;;26.20;67.00;;;;;;5083480;28;20098;-56
2023/02/02 11:21:55;;;;;;;39.42;14.13;;;26.10;68.40;;;;;;5083406;28;20308;-58
2023/02/02 11:24:24;;;;;;;39.78;12.07;;;25.90;70.00;;;;;;5083610;28;20040;-60
2023/02/02 11:27:07;;;;;;;41.92;11.80;;;25.60;71.20;;;;;;5083375;28;20105;-60
2023/02/02 11:29:42;;;;;;;37.30;11.68;;;25.50;72.90;;;;;;5083017;28;20025;-58
2023/02/02 11:32:34;;;;;;;38.17;10.45;;;25.30;72.90;;;;;;5086912;28;20039;-58
2023/02/02 11:35:03;;;;;;;29.83;10.70;;;25.20;73.50;;;;;;5087024;28;20309;-59
2023/02/02 11:37:32;;;;;;;30.38;11.82;;;25.20;73.40;;;;;;5087195;28;20391;-58
2023/02/02 11:40:36;;;;;;;26.23;10.10;;;25.30;73.10;;;;;;5086739;28;20032;-57
2023/02/02 11:43:13;;;;;;;28.30;10.25;;;25.50;73.30;;;;;;5086868;28;20205;-59
2023/02/02 11:45:43;;;;;;;21.70;9.70;;;25.60;72.90;;;;;;5086578;28;20060;-59
2023/02/02 11:48:22;;;;;;;26.65;9.57;;;25.60;72.90;;;;;;5087116;28;20032;-58
2023/02/02 11:50:54;;;;;;;18.48;9.10;;;25.70;72.80;;;;;;5085587;28;20058;-59
2023/02/02 11:53:23;;;;;;;;;;;25.80;72.80;;;;;;5087600;28;20221;-60
2023/02/02 11:55:51;;;;;;;23.63;9.38;;;25.80;72.80;;;;;;5086492;28;19950;-59
2023/02/02 11:58:41;;;;;;;25.95;9.40;;;25.80;72.90;;;;;;5086969;28;20047;-62
2023/02/02 12:01:29;;;;;;;17.73;8.93;;;25.90;72.90;;;;;;5086331;28;20378;-60
2023/02/02 12:04:01;;;;;;;21.52;9.63;;;25.90;72.70;;;;;;5086432;28;20109;-58
2023/02/02 12:06:36;;;;;;;45.75;12.13;;;26.00;73.10;;;;;;5086334;28;20162;-60
2023/02/02 12:09:11;;;;;;;37.15;11.50;;;26.00;73.20;;;;;;5086571;28;20043;-59
2023/02/02 12:11:50;;;;;;;39.22;11.70;;;26.00;73.40;;;;;;5086697;28;20044;-60
2023/02/02 12:14:33;;;;;;;28.23;11.18;;;26.00;73.50;;;;;;5086764;28;20020;-61
2023/02/02 12:17:29;;;;;;;26.23;11.38;;;26.10;73.50;;;;;;5086270;28;20134;-65
2023/02/02 12:19:58;;;;;;;29.95;12.90;;;26.10;73.70;;;;;;5086389;28;20205;-62
2023/02/02 12:22:38;;;;;;;22.77;12.35;;;26.00;73.90;;;;;;5087371;28;20209;-59
2023/02/02 12:25:23;;;;;;;25.08;12.50;;;26.10;74.00;;;;;;5086083;28;20232;-57
2023/02/02 12:28:17;;;;;;;25.25;13.45;;;26.00;73.80;;;;;;5087229;28;20048;-59
2023/02/02 12:31:02;;;;;;;20.85;11.82;;;26.10;74.10;;;;;;5086804;28;20021;-60
2023/02/02 12:33:47;;;;;;;20.67;12.15;;;26.10;73.90;;;;;;5086673;28;20055;-57
2023/02/02 12:36:29;;;;;;;23.63;12.18;;;26.10;73.80;;;;;;5086480;28;20012;-58
2023/02/02 12:39:21;;;;;;;21.00;11.70;;;26.10;73.70;;;;;;5086270;28;20046;-58
2023/02/02 12:42:10;;;;;;;44.97;12.90;;;26.20;74.00;;;;;;5086582;28;20043;-57
2023/02/02 12:45:00;;;;;;;32.05;12.57;;;26.30;73.90;;;;;;5086252;28;20044;-58
2023/02/02 12:47:29;;;;;;;30.65;11.00;;;26.30;73.50;;;;;;5079439;28;20055;-58
2023/02/02 12:50:44;;;;;;;21.73;10.05;;;26.40;73.80;;;;;;5086027;28;20024;-60
2023/02/02 12:53:45;;;;;;;38.83;11.07;;;26.50;73.30;;;;;;5086198;28;20028;-60
2023/02/02 12:56:25;;;;;;;54.63;13.05;;;26.50;73.20;;;;;;5085920;28;20033;-58
2023/02/02 12:59:13;;;;;;;23.52;10.32;;;26.60;73.30;;;;;;5085630;28;20327;-58
2023/02/02 13:01:49;;;;;;;39.38;10.15;;;26.60;73.20;;;;;;5086142;28;20147;-59
2023/02/02 13:04:31;;;;;;;22.52;8.70;;;26.70;73.20;;;;;;5086131;28;20024;-59
2023/02/02 13:07:17;;;;;;;14.95;8.23;;;26.70;73.20;;;;;;5085637;28;20108;-58
2023/02/02 13:10:11;;;;;;;16.42;8.15;;;26.80;73.40;;;;;;5085670;28;20092;-56
2023/02/02 13:12:44;;;;;;;18.92;7.93;;;26.80;73.20;;;;;;5086025;28;20078;-58